Time;durP1;ratioP1;P1;durP2;ratioP2;P2;SDS_P1;SDS_P2;PMS_P1;PMS_P2;Temp;Humidity;BMP_temperature;BMP_pressure;BME280_temperature;BME280_humidity;BME280_pressure;Samples;Min_cycle;Max_cycle;Signal;HPM_P1;HPM_P2
2023/03/09 00:01:54;;;;;;;0.77;0.60;;;22.40;39.20;;;;;;4996239;28;20050;-62
2023/03/09 00:04:22;;;;;;;0.68;0.50;;;22.40;39.20;;;;;;4996479;28;20141;-62
2023/03/09 00:06:49;;;;;;;1.02;0.47;;;22.40;39.20;;;;;;4996011;28;20054;-62
2023/03/09 00:09:17;;;;;;;1.40;0.88;;;22.40;39.70;;;;;;4996305;28;20084;-61
2023/03/09 00:11:47;;;;;;;0.63;0.63;;;22.40;39.20;;;;;;4996348;28;20056;-62
2023/03/09 00:14:16;;;;;;;0.63;0.60;;;22.40;39.20;;;;;;4978782;28;20101;-62
2023/03/09 00:16:44;;;;;;;0.77;0.77;;;22.40;39.20;;;;;;4995613;28;20105;-62
2023/03/09 00:19:11;;;;;;;0.90;0.70;;;22.40;39.20;;;;;;4978956;28;20046;-62
2023/03/09 00:21:40;;;;;;;1.13;0.77;;;22.40;39.20;;;;;;4996044;28;20046;-62
2023/03/09 00:24:20;;;;;;;0.60;0.60;;;22.40;39.10;;;;;;4995666;28;20050;-62
2023/03/09 00:26:50;;;;;;;0.80;0.50;;;22.40;39.10;;;;;;4995610;28;20137;-62
2023/03/09 00:29:18;;;;;;;;;;;22.40;39.10;;;;;;4995834;28;20047;-62
2023/03/09 00:31:45;;;;;;;0.60;0.60;;;22.40;39.10;;;;;;4995606;28;19972;-63
2023/03/09 00:34:14;;;;;;;0.63;0.63;;;22.40;39.10;;;;;;4994490;28;20054;-61
2023/03/09 00:36:41;;;;;;;1.20;0.60;;;22.40;39.00;;;;;;4978944;28;20132;-62
2023/03/09 00:39:11;;;;;;;0.73;0.60;;;22.40;39.10;;;;;;4996141;28;20461;-62
2023/03/09 00:41:38;;;;;;;0.80;0.80;;;22.40;39.00;;;;;;4995660;28;20061;-62
2023/03/09 00:44:06;;;;;;;0.47;0.45;;;22.40;39.10;;;;;;4994839;28;20052;-62
2023/03/09 00:46:34;;;;;;;1.25;0.93;;;22.40;39.00;;;;;;4995215;28;20145;-62
2023/03/09 00:49:05;;;;;;;0.65;0.65;;;22.40;39.00;;;;;;4995694;28;20410;-62
2023/03/09 00:51:36;;;;;;;0.40;0.40;;;22.40;39.00;;;;;;4995803;28;20507;-62
2023/03/09 00:54:03;;;;;;;0.52;0.52;;;22.40;39.00;;;;;;4995152;28;20060;-62
2023/03/09 00:56:31;;;;;;;0.63;0.60;;;22.40;39.00;;;;;;4961625;28;20050;-62
2023/03/09 00:58:58;;;;;;;0.50;0.50;;;22.40;39.00;;;;;;4995036;28;20600;-62
2023/03/09 01:01:27;;;;;;;0.65;0.60;;;22.40;39.60;;;;;;4995026;28;20059;-62
2023/03/09 01:03:54;;;;;;;0.55;0.55;;;22.30;39.00;;;;;;4991547;28;20043;-62
2023/03/09 01:06:23;;;;;;;0.60;0.60;;;22.40;39.10;;;;;;4974863;28;20054;-62
2023/03/09 01:08:51;;;;;;;0.40;0.40;;;22.30;39.00;;;;;;4975180;28;20078;-62
2023/03/09 01:11:19;;;;;;;1.35;0.60;;;22.30;39.00;;;;;;4975290;28;20050;-62
2023/03/09 01:13:46;;;;;;;0.80;0.80;;;22.30;39.00;;;;;;4975396;28;20050;-62
2023/03/09 01:16:14;;;;;;;0.50;0.50;;;22.30;39.00;;;;;;4975143;28;20046;-62
2023/03/09 01:18:42;;;;;;;0.40;0.40;;;22.30;39.00;;;;;;4975293;28;20499;-62
2023/03/09 01:21:09;;;;;;;0.47;0.40;;;22.30;39.00;;;;;;4974848;28;20478;-62
2023/03/09 01:23:38;;;;;;;0.57;0.50;;;22.30;39.00;;;;;;4975647;28;20086;-62
2023/03/09 01:26:07;;;;;;;0.77;0.55;;;22.30;39.00;;;;;;4958237;28;20134;-62
2023/03/09 01:28:35;;;;;;;0.40;0.40;;;22.30;39.00;;;;;;4957676;28;20088;-62
2023/03/09 01:31:10;;;;;;;0.50;0.50;;;22.30;39.10;;;;;;4942285;28;20050;-62
2023/03/09 01:33:38;;;;;;;1.05;0.70;;;22.30;39.00;;;;;;4974975;28;20098;-62
2023/03/09 01:36:08;;;;;;;0.52;0.50;;;22.30;39.00;;;;;;4975143;28;20456;-62
2023/03/09 01:38:35;;;;;;;0.73;0.37;;;22.30;39.00;;;;;;4975355;28;20054;-62
2023/03/09 01:41:03;;;;;;;1.48;0.57;;;22.30;39.00;;;;;;4974755;28;20043;-61
2023/03/09 01:43:39;;;;;;;0.50;0.50;;;22.30;39.00;;;;;;4975133;28;20487;-62
2023/03/09 01:46:28;;;;;;;0.47;0.47;;;22.30;39.00;;;;;;4974174;28;20051;-62
2023/03/09 01:49:22;;;;;;;0.50;0.50;;;22.30;39.00;;;;;;4974464;28;20056;-62
2023/03/09 01:52:03;;;;;;;0.50;0.50;;;22.30;39.00;;;;;;4975079;28;20089;-62
2023/03/09 01:54:55;;;;;;;0.50;0.50;;;22.30;39.00;;;;;;4974693;28;20551;-62
2023/03/09 01:57:36;;;;;;;0.57;0.45;;;22.30;39.00;;;;;;4974453;28;20137;-62
2023/03/09 02:00:18;;;;;;;0.40;0.40;;;22.30;39.00;;;;;;4974851;28;20070;-62
2023/03/09 02:02:50;;;;;;;0.32;0.30;;;22.30;39.00;;;;;;4974445;28;20097;-62
2023/03/09 02:05:26;;;;;;;0.43;0.43;;;22.20;39.00;;;;;;4974193;28;20142;-62
2023/03/09 02:07:54;;;;;;;1.15;0.88;;;22.20;39.00;;;;;;4974090;28;20411;-62
2023/03/09 02:10:29;;;;;;;0.38;0.38;;;22.20;38.90;;;;;;4974595;28;20046;-62
2023/03/09 02:13:01;;;;;;;0.43;0.43;;;22.20;38.90;;;;;;4974520;28;20453;-62
2023/03/09 02:15:28;;;;;;;0.60;0.50;;;22.20;38.90;;;;;;4974965;28;20415;-62
2023/03/09 02:17:55;;;;;;;0.73;0.40;;;22.30;39.00;;;;;;4974488;28;20105;-62
2023/03/09 02:20:49;;;;;;;0.40;0.40;;;22.20;38.90;;;;;;4974517;28;20109;-62
2023/03/09 02:23:36;;;;;;;0.50;0.50;;;22.30;39.00;;;;;;4974568;28;20113;-62
2023/03/09 02:26:22;;;;;;;0.43;0.40;;;22.30;39.00;;;;;;4974051;28;20102;-62
2023/03/09 02:28:49;;;;;;;0.52;0.40;;;22.20;38.90;;;;;;4974442;28;20086;-62
2023/03/09 02:31:18;;;;;;;0.50;0.50;;;22.20;38.90;;;;;;4958441;28;20047;-61
2023/03/09 02:33:46;;;;;;;0.40;0.40;;;22.20;38.90;;;;;;4938468;29;20566;-62
2023/03/09 02:36:13;;;;;;;0.50;0.40;;;22.20;38.90;;;;;;4954572;29;20138;-62
2023/03/09 02:38:40;;;;;;;0.50;0.47;;;22.20;38.90;;;;;;4954664;29;20054;-62
2023/03/09 02:41:12;;;;;;;0.40;0.40;;;22.20;38.90;;;;;;4954902;29;20461;-62
2023/03/09 02:43:49;;;;;;;0.60;0.60;;;22.20;38.90;;;;;;4938351;29;20580;-62
2023/03/09 02:46:17;;;;;;;0.52;0.40;;;22.20;38.90;;;;;;4954903;29;20051;-62
2023/03/09 02:48:44;;;;;;;0.63;0.40;;;22.20;38.90;;;;;;4955127;29;20493;-62
2023/03/09 02:51:11;;;;;;;0.52;0.32;;;22.20;38.80;;;;;;4955027;29;20621;-62
2023/03/09 02:53:38;;;;;;;0.40;0.40;;;22.20;38.80;;;;;;4954146;29;20055;-62
2023/03/09 02:56:06;;;;;;;0.55;0.55;;;22.20;38.80;;;;;;4978810;28;20070;-64
2023/03/09 02:58:33;;;;;;;0.43;0.40;;;22.20;38.80;;;;;;4993626;28;20054;-62
2023/03/09 03:01:00;;;;;;;0.45;0.40;;;22.20;38.80;;;;;;4992943;28;20074;-62
2023/03/09 03:03:28;;;;;;;0.45;0.45;;;22.30;38.80;;;;;;4993061;28;20145;-62
2023/03/09 03:05:55;;;;;;;0.40;0.32;;;22.20;38.80;;;;;;4993759;28;20073;-62
2023/03/09 03:08:22;;;;;;;0.28;0.28;;;22.20;38.80;;;;;;4997109;28;20047;-62
2023/03/09 03:11:03;;;;;;;0.40;0.40;;;22.20;39.40;;;;;;4981413;28;20053;-62
2023/03/09 03:13:30;;;;;;;0.30;0.30;;;22.20;38.80;;;;;;4996594;28;20141;-62
2023/03/09 03:15:59;;;;;;;0.65;0.35;;;22.20;38.90;;;;;;4996816;28;20141;-61
2023/03/09 03:18:26;;;;;;;0.40;0.40;;;22.20;38.90;;;;;;4996828;28;20157;-62
2023/03/09 03:20:54;;;;;;;0.30;0.30;;;22.20;38.90;;;;;;4979481;28;20082;-62
2023/03/09 03:23:21;;;;;;;0.40;0.40;;;22.20;38.90;;;;;;4996542;28;20050;-62
2023/03/09 03:25:49;;;;;;;0.30;0.30;;;22.20;38.90;;;;;;4979478;28;20058;-62
2023/03/09 03:28:16;;;;;;;0.30;0.30;;;22.20;38.90;;;;;;4996726;28;20487;-62
2023/03/09 03:30:50;;;;;;;0.55;0.40;;;22.20;38.90;;;;;;4996510;28;20133;-62
2023/03/09 03:33:18;;;;;;;0.95;0.45;;;22.20;38.90;;;;;;4996653;28;20049;-62
2023/03/09 03:35:45;;;;;;;0.50;0.47;;;22.20;38.90;;;;;;4996475;28;20061;-62
2023/03/09 03:38:12;;;;;;;0.52;0.32;;;22.20;38.90;;;;;;4996970;28;20053;-63
2023/03/09 03:40:40;;;;;;;0.50;0.30;;;22.10;38.80;;;;;;4996364;28;20093;-62
2023/03/09 03:43:08;;;;;;;0.50;0.35;;;22.10;38.80;;;;;;4995652;28;20085;-61
2023/03/09 03:45:35;;;;;;;1.80;0.80;;;22.10;38.80;;;;;;4977235;28;20105;-62
2023/03/09 03:48:02;;;;;;;0.20;0.20;;;22.10;38.80;;;;;;4976846;28;20089;-62
2023/03/09 03:50:29;;;;;;;0.20;0.20;;;22.10;38.80;;;;;;4977284;28;20105;-62
2023/03/09 03:52:56;;;;;;;0.35;0.35;;;22.10;38.80;;;;;;4977008;28;20047;-62
2023/03/09 03:55:24;;;;;;;0.50;0.30;;;22.10;38.80;;;;;;4977429;28;20053;-62
2023/03/09 03:57:51;;;;;;;0.35;0.32;;;22.10;38.80;;;;;;4977083;28;20047;-62
2023/03/09 04:00:19;;;;;;;0.45;0.43;;;22.10;38.80;;;;;;4976586;28;20051;-62
2023/03/09 04:02:46;;;;;;;0.20;0.20;;;22.10;38.80;;;;;;4977080;28;20054;-62
2023/03/09 04:05:14;;;;;;;0.38;0.38;;;22.10;38.80;;;;;;4975795;28;20054;-62
2023/03/09 04:07:43;;;;;;;0.30;0.30;;;22.10;38.80;;;;;;4976484;28;20097;-62
2023/03/09 04:10:11;;;;;;;0.65;0.30;;;22.10;38.80;;;;;;4974846;28;20554;-61
2023/03/09 04:12:38;;;;;;;0.40;0.40;;;22.10;38.80;;;;;;4985356;28;20046;-61
2023/03/09 04:15:06;;;;;;;0.68;0.30;;;22.20;38.90;;;;;;4995779;28;20162;-62
2023/03/09 04:17:33;;;;;;;0.45;0.30;;;22.10;38.80;;;;;;4995808;28;20054;-62
2023/03/09 04:20:00;;;;;;;0.75;0.28;;;22.20;38.90;;;;;;4996301;28;20078;-62
2023/03/09 04:22:27;;;;;;;0.40;0.40;;;22.10;38.80;;;;;;4996400;28;20097;-62
2023/03/09 04:24:55;;;;;;;0.60;0.30;;;22.10;38.80;;;;;;4996096;28;21950;-61
2023/03/09 04:27:22;;;;;;;0.38;0.35;;;22.10;38.80;;;;;;4995576;28;20093;-62
2023/03/09 04:29:49;;;;;;;0.50;0.50;;;22.10;38.80;;;;;;4995419;28;20054;-61
2023/03/09 04:32:17;;;;;;;0.20;0.20;;;22.10;38.80;;;;;;4977860;28;20057;-61
2023/03/09 04:34:44;;;;;;;0.40;0.22;;;22.10;38.80;;;;;;4995742;28;20042;-61
2023/03/09 04:37:12;;;;;;;0.85;0.30;;;22.10;38.80;;;;;;4978294;28;20549;-62
2023/03/09 04:39:39;;;;;;;0.20;0.20;;;22.10;38.80;;;;;;4995462;28;20140;-62
2023/03/09 04:42:06;;;;;;;0.30;0.30;;;22.10;38.80;;;;;;4980308;28;20047;-62
2023/03/09 04:44:34;;;;;;;0.90;0.30;;;22.10;38.80;;;;;;4982042;28;20406;-62
2023/03/09 04:47:02;;;;;;;0.30;0.30;;;22.10;38.80;;;;;;4982681;28;20050;-62
2023/03/09 04:49:30;;;;;;;0.22;0.22;;;22.10;38.80;;;;;;4976524;28;20050;-62
2023/03/09 04:51:57;;;;;;;0.30;0.30;;;22.10;38.80;;;;;;4976334;28;20078;-62
2023/03/09 04:54:24;;;;;;;0.30;0.30;;;22.10;38.80;;;;;;4976129;28;20137;-64
2023/03/09 04:56:51;;;;;;;0.20;0.20;;;22.10;38.80;;;;;;4975939;28;20086;-62
2023/03/09 04:59:19;;;;;;;0.98;0.40;;;22.10;38.80;;;;;;4975612;28;20086;-62
2023/03/09 05:01:46;;;;;;;0.52;0.40;;;22.10;38.80;;;;;;4976414;28;20082;-62
2023/03/09 05:04:13;;;;;;;0.40;0.25;;;22.10;38.80;;;;;;4976497;28;20053;-62
2023/03/09 05:06:40;;;;;;;0.25;0.25;;;22.10;38.70;;;;;;4975600;28;20134;-62
2023/03/09 05:09:08;;;;;;;0.20;0.20;;;22.10;38.70;;;;;;4976016;28;20051;-62
2023/03/09 05:11:36;;;;;;;0.35;0.35;;;22.10;38.70;;;;;;4975275;28;20129;-62
2023/03/09 05:14:03;;;;;;;0.75;0.20;;;22.20;38.80;;;;;;4975930;28;20051;-62
2023/03/09 05:16:30;;;;;;;0.25;0.25;;;22.10;38.70;;;;;;4975612;28;20047;-62
2023/03/09 05:18:57;;;;;;;0.47;0.28;;;22.10;38.70;;;;;;4975154;28;20061;-62
2023/03/09 05:21:25;;;;;;;0.40;0.30;;;22.10;38.70;;;;;;4975128;28;20089;-62
2023/03/09 05:23:52;;;;;;;0.40;0.30;;;22.10;38.70;;;;;;4975020;28;20282;-62
2023/03/09 05:26:19;;;;;;;0.40;0.40;;;22.10;38.70;;;;;;4975337;28;20055;-62
2023/03/09 05:28:49;;;;;;;0.50;0.50;;;22.10;38.80;;;;;;4973759;28;20077;-62
2023/03/09 05:31:16;;;;;;;0.17;0.17;;;22.10;38.80;;;;;;4971622;28;20082;-62
2023/03/09 05:33:43;;;;;;;0.35;0.30;;;22.10;38.80;;;;;;4975225;28;20055;-62
2023/03/09 05:36:19;;;;;;;0.30;0.30;;;22.10;38.70;;;;;;4971913;28;20082;-62
2023/03/09 05:38:48;;;;;;;0.50;0.40;;;22.10;38.70;;;;;;4975042;28;20046;-62
2023/03/09 05:41:16;;;;;;;0.40;0.40;;;22.10;38.60;;;;;;4974648;28;20376;-62
2023/03/09 05:43:43;;;;;;;0.30;0.30;;;22.00;38.60;;;;;;4978717;28;20495;-62
2023/03/09 05:46:13;;;;;;;0.55;0.55;;;22.00;38.60;;;;;;4982748;28;20053;-62
2023/03/09 05:48:41;;;;;;;0.30;0.30;;;22.00;38.70;;;;;;4985192;28;20429;-62
2023/03/09 05:51:11;;;;;;;0.30;0.30;;;22.00;38.70;;;;;;4986822;28;20050;-62
2023/03/09 05:53:38;;;;;;;1.20;0.43;;;22.00;38.70;;;;;;4973866;28;20074;-63
2023/03/09 05:56:06;;;;;;;0.60;0.50;;;22.00;38.70;;;;;;4974161;28;20050;-61
2023/03/09 05:58:37;;;;;;;1.08;0.52;;;22.00;38.70;;;;;;4974603;28;20084;-62
2023/03/09 06:01:04;;;;;;;0.30;0.30;;;22.10;38.70;;;;;;4973465;28;20047;-62
2023/03/09 06:03:32;;;;;;;0.47;0.43;;;22.10;38.70;;;;;;4973971;28;20042;-62
2023/03/09 06:06:05;;;;;;;1.08;0.30;;;22.10;38.60;;;;;;4974928;28;20142;-61
2023/03/09 06:08:32;;;;;;;0.40;0.40;;;22.10;38.50;;;;;;4957550;28;20491;-62
2023/03/09 06:11:00;;;;;;;0.30;0.30;;;22.20;38.60;;;;;;4974385;28;20050;-61
2023/03/09 06:13:28;;;;;;;0.73;0.40;;;22.20;38.50;;;;;;4982952;28;20054;-62
2023/03/09 06:15:55;;;;;;;0.60;0.47;;;22.20;38.40;;;;;;4967032;28;20373;-58
2023/03/09 06:18:22;;;;;;;0.55;0.40;;;22.30;38.50;;;;;;4972692;28;20145;-62
2023/03/09 06:20:50;;;;;;;0.30;0.30;;;22.30;38.50;;;;;;4970460;28;20051;-62
2023/03/09 06:23:17;;;;;;;0.68;0.60;;;22.30;38.50;;;;;;4964713;28;20090;-63
2023/03/09 06:25:44;;;;;;;1.95;0.40;;;22.30;38.50;;;;;;4953315;28;20043;-62
2023/03/09 06:28:12;;;;;;;1.35;0.60;;;22.40;38.60;;;;;;4969524;28;20047;-63
2023/03/09 06:30:42;;;;;;;0.35;0.30;;;22.40;38.60;;;;;;4966822;28;20046;-65
2023/03/09 06:33:09;;;;;;;0.40;0.38;;;22.40;38.50;;;;;;4963577;28;20150;-63
2023/03/09 06:35:37;;;;;;;0.70;0.50;;;22.50;38.60;;;;;;4965055;28;20058;-64
2023/03/09 06:38:04;;;;;;;1.33;0.43;;;22.50;38.50;;;;;;4966269;28;20051;-62
2023/03/09 06:40:32;;;;;;;1.17;0.63;;;22.50;38.50;;;;;;4959491;28;20054;-64
2023/03/09 06:43:00;;;;;;;1.38;1.27;;;22.50;38.40;;;;;;4959281;28;20078;-62
2023/03/09 06:45:27;;;;;;;1.42;0.55;;;22.60;38.40;;;;;;4952668;28;20153;-63
2023/03/09 06:47:56;;;;;;;1.10;0.50;;;22.60;38.30;;;;;;4962070;28;20055;-65
2023/03/09 06:50:25;;;;;;;0.55;0.50;;;22.70;38.60;;;;;;4964968;28;20075;-64
2023/03/09 06:52:53;;;;;;;0.80;0.60;;;22.70;38.70;;;;;;4970538;28;20107;-64
2023/03/09 06:55:20;;;;;;;0.65;0.47;;;22.70;38.70;;;;;;4933690;28;20047;-63
2023/03/09 06:57:48;;;;;;;1.25;0.73;;;22.70;38.60;;;;;;4965930;28;20138;-65
2023/03/09 07:00:16;;;;;;;1.58;0.80;;;22.80;38.70;;;;;;4964654;28;20050;-64
2023/03/09 07:02:45;;;;;;;2.50;0.73;;;22.80;38.70;;;;;;4924813;28;20053;-68
2023/03/09 07:05:12;;;;;;;0.60;0.57;;;22.80;38.80;;;;;;4962356;28;20436;-62
2023/03/09 07:07:42;;;;;;;1.17;0.40;;;22.90;38.90;;;;;;4963439;28;20055;-61
2023/03/09 07:10:11;;;;;;;3.83;0.67;;;23.00;39.10;;;;;;4963946;28;20055;-60
2023/03/09 07:12:38;;;;;;;1.10;0.68;;;23.00;39.20;;;;;;4964716;28;20301;-62
2023/03/09 07:15:09;;;;;;;1.70;0.70;;;23.10;39.40;;;;;;4965773;28;20054;-63
2023/03/09 07:17:36;;;;;;;1.30;0.70;;;23.10;39.20;;;;;;4960270;28;20058;-64
2023/03/09 07:20:03;;;;;;;0.60;0.60;;;23.10;39.00;;;;;;4962866;28;20047;-62
2023/03/09 07:22:31;;;;;;;1.02;0.93;;;23.20;38.90;;;;;;4963006;28;20055;-64
2023/03/09 07:24:58;;;;;;;4.35;0.93;;;23.20;38.70;;;;;;4965063;28;20051;-66
2023/03/09 07:27:26;;;;;;;6.57;0.90;;;23.30;38.60;;;;;;4972675;28;20046;-62
2023/03/09 07:29:53;;;;;;;0.70;0.70;;;23.30;38.60;;;;;;4962356;28;20051;-62
2023/03/09 07:32:20;;;;;;;1.15;0.93;;;23.30;38.50;;;;;;4934348;28;20102;-62
2023/03/09 07:34:47;;;;;;;2.15;0.68;;;23.40;38.50;;;;;;4962689;28;20061;-63
2023/03/09 07:37:15;;;;;;;3.50;0.88;;;23.40;38.40;;;;;;4967142;28;20105;-64
2023/03/09 07:39:42;;;;;;;2.38;0.70;;;23.40;38.30;;;;;;4969013;28;20514;-66
2023/03/09 07:42:10;;;;;;;2.67;1.23;;;23.40;38.30;;;;;;4967164;28;20377;-65
2023/03/09 07:44:37;;;;;;;5.30;0.90;;;23.40;38.30;;;;;;4969297;28;20085;-63
2023/03/09 07:47:04;;;;;;;1.13;1.02;;;23.40;38.30;;;;;;4947999;28;20043;-65
2023/03/09 07:49:32;;;;;;;1.48;1.00;;;23.50;38.30;;;;;;4950021;28;20053;-64
2023/03/09 07:51:59;;;;;;;2.95;1.23;;;23.50;38.20;;;;;;4968341;28;20523;-64
2023/03/09 07:54:26;;;;;;;1.40;1.25;;;23.50;38.10;;;;;;4954435;28;20141;-63
2023/03/09 07:56:56;;;;;;;2.65;1.10;;;23.50;38.10;;;;;;4948230;28;20413;-65
2023/03/09 07:59:23;;;;;;;5.32;2.20;;;23.60;38.10;;;;;;4966498;28;20371;-65
2023/03/09 08:01:50;;;;;;;6.97;1.17;;;23.60;38.00;;;;;;4946062;28;20054;-67
2023/03/09 08:04:18;;;;;;;1.75;0.90;;;23.60;38.00;;;;;;4945773;28;20070;-65
2023/03/09 08:06:45;;;;;;;2.58;1.20;;;23.70;38.20;;;;;;4968717;28;20376;-60
2023/03/09 08:09:15;;;;;;;3.38;1.00;;;23.70;38.40;;;;;;4962847;28;20082;-62
2023/03/09 08:11:45;;;;;;;3.63;1.35;;;23.70;38.50;;;;;;4961277;28;20087;-61
2023/03/09 08:14:12;;;;;;;4.75;1.27;;;23.70;38.50;;;;;;4969382;28;20047;-65
2023/03/09 08:16:40;;;;;;;5.20;1.40;;;23.80;38.70;;;;;;4971180;28;20113;-64
2023/03/09 08:19:07;;;;;;;1.90;1.30;;;23.80;38.70;;;;;;4972075;28;20050;-61
2023/03/09 08:21:34;;;;;;;3.00;1.23;;;23.80;38.70;;;;;;4966337;28;20105;-62
2023/03/09 08:24:02;;;;;;;2.10;1.10;;;23.80;38.70;;;;;;4953419;28;20097;-61
2023/03/09 08:26:30;;;;;;;2.42;1.48;;;23.90;38.80;;;;;;4949411;28;20062;-62
2023/03/09 08:28:57;;;;;;;3.83;2.00;;;23.90;39.30;;;;;;4964967;28;20573;-61
2023/03/09 08:31:24;;;;;;;3.08;1.80;;;23.90;38.90;;;;;;4968887;28;20042;-61
2023/03/09 08:33:51;;;;;;;1.83;1.40;;;23.90;38.90;;;;;;4963703;28;20057;-59
2023/03/09 08:36:20;;;;;;;2.53;1.50;;;23.90;38.90;;;;;;4966712;28;20113;-61
2023/03/09 08:38:49;;;;;;;2.28;1.80;;;24.00;38.90;;;;;;4964657;28;20062;-60
2023/03/09 08:41:17;;;;;;;2.50;1.70;;;24.10;39.00;;;;;;4968943;28;20046;-61
2023/03/09 08:43:46;;;;;;;5.88;1.88;;;24.10;38.90;;;;;;4965330;28;20098;-60
2023/03/09 08:46:13;;;;;;;2.28;1.63;;;24.10;38.80;;;;;;4966753;28;20173;-61
2023/03/09 08:48:41;;;;;;;3.70;2.25;;;24.20;38.80;;;;;;4948128;28;20051;-61
2023/03/09 08:51:12;;;;;;;5.28;1.95;;;24.30;38.80;;;;;;4966631;28;20047;-60
2023/03/09 08:53:39;;;;;;;4.15;1.77;;;24.30;38.80;;;;;;4967715;28;20500;-60
2023/03/09 08:56:11;;;;;;;3.65;1.70;;;24.40;38.70;;;;;;4962793;28;20146;-64
2023/03/09 08:58:38;;;;;;;3.78;1.50;;;24.50;38.50;;;;;;4946267;28;20133;-61
2023/03/09 09:01:08;;;;;;;2.67;1.60;;;24.60;38.20;;;;;;4958753;28;20055;-59
2023/03/09 09:03:38;;;;;;;4.43;2.63;;;24.70;38.10;;;;;;4962458;28;20744;-60
2023/03/09 09:06:09;;;;;;;3.45;1.92;;;24.70;37.90;;;;;;4968397;28;20509;-63
2023/03/09 09:08:37;;;;;;;3.05;1.80;;;24.80;37.90;;;;;;4966312;28;20109;-61
2023/03/09 09:11:06;;;;;;;4.97;2.08;;;24.80;37.70;;;;;;4948734;28;20133;-61
2023/03/09 09:13:34;;;;;;;4.57;1.73;;;24.90;37.80;;;;;;4970507;28;20495;-62
2023/03/09 09:16:01;;;;;;;2.35;1.92;;;24.90;37.60;;;;;;4962644;28;20285;-60
2023/03/09 09:18:28;;;;;;;4.55;2.20;;;24.90;37.40;;;;;;4970964;28;20511;-60
2023/03/09 09:21:09;;;;;;;3.13;1.98;;;25.00;37.40;;;;;;4951236;28;20063;-60
2023/03/09 09:23:38;;;;;;;5.15;2.03;;;25.00;37.40;;;;;;4966922;28;20054;-63
2023/03/09 09:26:06;;;;;;;3.92;1.77;;;25.00;37.40;;;;;;4967763;28;20047;-63
2023/03/09 09:28:34;;;;;;;3.85;1.70;;;25.10;37.40;;;;;;4971485;28;20500;-63
2023/03/09 09:31:03;;;;;;;2.75;1.65;;;25.10;37.10;;;;;;4948111;28;20078;-62
2023/03/09 09:33:33;;;;;;;2.40;1.77;;;25.10;37.00;;;;;;4927309;28;20057;-61
2023/03/09 09:36:04;;;;;;;4.93;1.70;;;25.10;36.90;;;;;;4963074;28;20094;-60
2023/03/09 09:38:33;;;;;;;2.50;1.70;;;25.20;37.00;;;;;;4949056;28;20054;-61
2023/03/09 09:41:07;;;;;;;2.03;1.52;;;25.20;36.90;;;;;;4949454;28;20058;-61
2023/03/09 09:43:35;;;;;;;2.55;1.33;;;25.20;36.80;;;;;;4963746;28;20507;-60
2023/03/09 09:46:04;;;;;;;1.95;1.40;;;25.30;36.80;;;;;;4940780;28;20062;-60
2023/03/09 09:48:32;;;;;;;2.10;1.73;;;25.30;36.70;;;;;;4947317;28;20055;-60
2023/03/09 09:51:33;;;;;;;3.72;1.80;;;25.40;36.70;;;;;;4950480;28;20441;-60
2023/03/09 09:54:28;;;;;;;2.78;1.80;;;25.40;36.50;;;;;;4970120;28;20085;-60
2023/03/09 09:57:00;;;;;;;1.90;1.67;;;25.50;36.60;;;;;;4963965;28;20125;-59
2023/03/09 09:59:41;;;;;;;2.55;1.88;;;25.50;36.40;;;;;;4948567;28;20074;-60
2023/03/09 10:02:39;;;;;;;6.82;1.90;;;25.60;36.40;;;;;;4968850;28;20053;-60
2023/03/09 10:05:23;;;;;;;3.42;1.50;;;25.60;36.30;;;;;;4972476;28;20086;-61
2023/03/09 10:07:51;;;;;;;3.45;2.22;;;25.60;36.90;;;;;;4978595;28;20055;-60
2023/03/09 10:10:28;;;;;;;2.85;1.80;;;25.70;36.40;;;;;;4960694;28;20054;-62
2023/03/09 10:13:01;;;;;;;4.75;1.50;;;25.70;36.30;;;;;;4971728;28;20073;-60
2023/03/09 10:15:32;;;;;;;5.90;1.90;;;25.70;36.20;;;;;;4971079;28;20057;-59
2023/03/09 10:18:06;;;;;;;3.10;2.00;;;25.70;36.20;;;;;;4973799;28;20046;-59
2023/03/09 10:20:38;;;;;;;2.25;1.40;;;25.70;36.20;;;;;;4972573;28;20380;-60
2023/03/09 10:23:26;;;;;;;4.07;1.90;;;25.80;36.20;;;;;;4967250;28;20057;-61
2023/03/09 10:26:02;;;;;;;4.43;2.03;;;25.80;36.10;;;;;;4970802;28;20062;-62
2023/03/09 10:28:37;;;;;;;2.65;1.45;;;25.80;36.10;;;;;;4969941;28;20078;-63
2023/03/09 10:31:18;;;;;;;5.43;1.75;;;25.80;36.10;;;;;;4970972;28;20338;-62
2023/03/09 10:33:58;;;;;;;5.07;1.90;;;25.90;36.20;;;;;;4971669;28;20638;-61
2023/03/09 10:36:31;;;;;;;2.72;1.40;;;25.90;36.10;;;;;;4975068;28;20165;-62
2023/03/09 10:39:12;;;;;;;4.78;1.92;;;25.90;36.20;;;;;;4954320;28;20511;-60
2023/03/09 10:41:41;;;;;;;4.50;1.67;;;25.90;36.30;;;;;;4974056;28;20074;-60
2023/03/09 10:44:13;;;;;;;5.40;1.83;;;25.90;36.40;;;;;;4959580;28;20110;-60
2023/03/09 10:46:59;;;;;;;3.08;1.70;;;25.90;36.40;;;;;;4963972;28;20469;-60
2023/03/09 10:49:30;;;;;;;5.18;1.80;;;25.90;36.60;;;;;;4970887;28;20514;-60
2023/03/09 10:52:04;;;;;;;1.35;1.02;;;25.90;36.60;;;;;;4975692;28;20042;-61
2023/03/09 10:54:37;;;;;;;3.25;1.33;;;25.90;36.50;;;;;;4957412;28;20176;-61
2023/03/09 10:57:25;;;;;;;1.58;1.05;;;26.00;36.60;;;;;;4954620;28;20093;-63
2023/03/09 11:00:15;;;;;;;4.10;1.20;;;26.00;36.60;;;;;;4974466;28;20046;-62
2023/03/09 11:02:50;;;;;;;;;;;26.00;36.40;;;;;;4966798;28;20053;-62
2023/03/09 11:05:21;;;;;;;1.85;0.93;;;26.00;36.40;;;;;;4963208;28;20005;-62
2023/03/09 11:07:57;;;;;;;2.72;0.88;;;26.00;36.40;;;;;;4975425;28;20077;-63
2023/03/09 11:10:28;;;;;;;3.58;1.45;;;26.00;36.40;;;;;;4976205;28;20129;-66
2023/03/09 11:12:57;;;;;;;1.35;0.88;;;26.10;36.50;;;;;;4974026;28;20513;-65
2023/03/09 11:15:40;;;;;;;2.67;0.80;;;26.10;36.50;;;;;;4956839;28;20051;-63
2023/03/09 11:18:28;;;;;;;2.70;0.85;;;26.10;36.40;;;;;;4978736;28;20083;-62
2023/03/09 11:20:59;;;;;;;2.15;1.33;;;26.10;36.40;;;;;;4963747;28;20102;-63
2023/03/09 11:23:44;;;;;;;1.23;0.95;;;26.10;36.40;;;;;;4975006;28;20109;-62
2023/03/09 11:26:27;;;;;;;2.08;0.85;;;26.10;36.50;;;;;;4975115;28;20074;-62
2023/03/09 11:29:24;;;;;;;1.80;0.88;;;26.10;36.30;;;;;;4982309;28;20050;-60
2023/03/09 11:31:51;;;;;;;19.88;1.88;;;26.10;36.20;;;;;;4968289;28;20045;-60
2023/03/09 11:34:35;;;;;;;2.78;0.75;;;26.20;36.30;;;;;;4965774;28;20051;-59
2023/03/09 11:37:16;;;;;;;4.10;1.02;;;26.20;36.20;;;;;;4977471;28;20101;-61
2023/03/09 11:39:51;;;;;;;1.33;1.00;;;26.20;36.10;;;;;;4981928;28;20415;-60
2023/03/09 11:42:37;;;;;;;6.57;1.20;;;26.20;36.00;;;;;;4980309;28;20043;-60
2023/03/09 11:45:09;;;;;;;1.60;0.93;;;26.20;34.80;;;;;;4974735;28;20499;-60
2023/03/09 11:47:44;;;;;;;3.08;0.50;;;26.10;35.00;;;;;;4963257;28;20423;-61
2023/03/09 11:50:19;;;;;;;2.28;0.50;;;26.00;34.80;;;;;;4977711;28;20097;-60
2023/03/09 11:52:52;;;;;;;2.00;0.47;;;25.90;35.10;;;;;;4975915;28;20053;-59
2023/03/09 11:55:24;;;;;;;1.50;0.55;;;25.90;35.30;;;;;;4975642;28;20099;-60
2023/03/09 11:57:59;;;;;;;1.92;1.00;;;25.90;35.50;;;;;;4974033;28;20046;-60
2023/03/09 12:00:27;;;;;;;1.63;0.52;;;25.90;35.60;;;;;;4958332;28;20047;-61
2023/03/09 12:03:09;;;;;;;1.20;0.68;;;26.00;35.70;;;;;;4959597;28;20081;-61
2023/03/09 12:05:58;;;;;;;0.95;0.50;;;26.00;35.70;;;;;;4970832;28;20475;-60
2023/03/09 12:08:36;;;;;;;0.65;0.65;;;26.10;35.60;;;;;;4968098;28;20449;-61
2023/03/09 12:11:21;;;;;;;2.13;0.80;;;26.10;36.20;;;;;;4973431;28;20142;-62
2023/03/09 12:13:54;;;;;;;1.83;0.95;;;26.10;35.60;;;;;;4972565;28;20060;-63
2023/03/09 12:16:36;;;;;;;0.90;0.50;;;26.10;35.80;;;;;;4972779;28;20052;-61
2023/03/09 12:19:13;;;;;;;1.13;0.45;;;26.20;36.00;;;;;;4973252;28;20050;-62
2023/03/09 12:21:57;;;;;;;0.73;0.73;;;26.20;36.20;;;;;;4969434;28;20050;-63
2023/03/09 12:24:33;;;;;;;0.50;0.50;;;26.20;36.10;;;;;;4977727;28;20526;-62
2023/03/09 12:27:13;;;;;;;0.65;0.60;;;26.20;36.10;;;;;;4972173;28;20073;-63
2023/03/09 12:29:52;;;;;;;5.93;0.70;;;26.20;36.30;;;;;;4974098;28;20391;-63
2023/03/09 12:32:36;;;;;;;2.78;0.45;;;26.30;36.40;;;;;;4974371;28;20110;-64
2023/03/09 12:35:32;;;;;;;0.98;0.65;;;26.30;36.30;;;;;;4961358;28;20465;-65
2023/03/09 12:38:15;;;;;;;0.85;0.40;;;26.40;36.30;;;;;;4962076;28;20047;-65
2023/03/09 12:40:43;;;;;;;1.15;0.43;;;26.40;36.20;;;;;;4974738;28;20525;-64
2023/03/09 12:43:32;;;;;;;3.75;0.50;;;26.40;36.10;;;;;;4976184;28;20054;-63
2023/03/09 12:46:38;;;;;;;0.98;0.45;;;26.60;36.20;;;;;;4975780;28;20138;-65
2023/03/09 12:49:14;;;;;;;3.10;0.85;;;26.60;36.00;;;;;;4973452;28;20061;-65
2023/03/09 12:51:45;;;;;;;0.90;0.50;;;26.60;35.90;;;;;;4971968;28;20513;-66
2023/03/09 12:54:23;;;;;;;2.10;0.60;;;26.70;35.90;;;;;;4972104;28;20050;-64
2023/03/09 12:56:51;;;;;;;0.40;0.40;;;26.80;35.90;;;;;;4976168;28;20043;-60
2023/03/09 12:59:25;;;;;;;0.85;0.40;;;26.80;35.80;;;;;;4972279;28;20058;-66
2023/03/09 13:01:53;;;;;;;0.40;0.35;;;26.80;35.60;;;;;;4976629;28;20490;-62
2023/03/09 13:04:23;;;;;;;0.55;0.40;;;26.80;35.50;;;;;;4975270;28;20131;-62
2023/03/09 13:06:56;;;;;;;2.78;0.43;;;26.80;35.70;;;;;;4975374;28;20067;-63
2023/03/09 13:09:36;;;;;;;0.95;0.63;;;26.80;35.70;;;;;;4957805;28;20058;-65